createdAt,value
2023-08-08T00:02:15.442Z,15.22
2023-08-08T00:04:41.985Z,15.23
2023-08-08T00:07:08.597Z,15.23
2023-08-08T00:09:35.057Z,15.22
2023-08-08T00:12:01.675Z,15.24
2023-08-08T00:14:28.240Z,15.24
2023-08-08T00:16:54.700Z,15.26
2023-08-08T00:19:21.246Z,15.26
2023-08-08T00:21:47.875Z,15.21
2023-08-08T00:24:14.729Z,15.17
2023-08-08T00:26:41.227Z,15.10
2023-08-08T00:29:07.776Z,15.04
2023-08-08T00:31:34.299Z,14.96
2023-08-08T00:34:00.929Z,14.89
2023-08-08T00:36:27.436Z,14.85
2023-08-08T00:38:53.912Z,14.74
2023-08-08T00:41:20.455Z,14.67
2023-08-08T00:43:46.980Z,14.65
2023-08-08T00:46:13.690Z,14.60
2023-08-08T00:48:40.211Z,14.53
2023-08-08T00:51:06.768Z,14.47
2023-08-08T00:53:33.413Z,14.39
2023-08-08T00:56:00.513Z,14.35
2023-08-08T00:58:27.316Z,14.30
2023-08-08T01:00:57.661Z,14.25
2023-08-08T01:03:24.268Z,14.18
2023-08-08T01:06:27.842Z,14.11
2023-08-08T01:09:09.406Z,14.07
2023-08-08T01:11:37.427Z,14.06
2023-08-08T01:14:05.711Z,14.01
2023-08-08T01:16:32.616Z,13.97
2023-08-08T01:18:59.644Z,13.87
2023-08-08T01:21:28.664Z,13.83
2023-08-08T01:24:17.564Z,13.77
2023-08-08T01:26:44.233Z,13.74
2023-08-08T01:29:10.885Z,13.74
2023-08-08T01:31:37.591Z,13.75
2023-08-08T01:34:05.361Z,13.74
2023-08-08T01:36:44.709Z,13.76
2023-08-08T01:39:15.087Z,13.75
2023-08-08T01:41:43.107Z,13.74
2023-08-08T01:44:10.226Z,13.74
2023-08-08T01:46:37.663Z,13.71
2023-08-08T01:49:04.237Z,13.67
2023-08-08T01:51:30.810Z,13.65
2023-08-08T01:53:57.378Z,13.63
2023-08-08T01:56:24.052Z,13.56
2023-08-08T01:58:50.710Z,13.50
2023-08-08T02:01:17.229Z,13.48
2023-08-08T02:03:45.812Z,13.44
2023-08-08T02:06:12.526Z,13.38
2023-08-08T02:08:39.198Z,13.33
2023-08-08T02:11:05.761Z,13.31
2023-08-08T02:13:32.233Z,13.27
2023-08-08T02:15:58.825Z,13.22
2023-08-08T02:18:26.810Z,13.20
2023-08-08T02:20:53.279Z,13.20
2023-08-08T02:23:19.843Z,13.16
2023-08-08T02:25:46.418Z,13.14
2023-08-08T02:28:12.879Z,13.11
2023-08-08T02:30:39.609Z,13.14
2023-08-08T02:33:06.200Z,13.15
2023-08-08T02:35:34.651Z,13.16
2023-08-08T02:38:01.310Z,13.17
2023-08-08T02:40:28.066Z,13.17
2023-08-08T02:42:54.901Z,13.15
2023-08-08T02:45:21.988Z,13.09
2023-08-08T02:47:48.798Z,13.05
2023-08-08T02:50:15.411Z,12.99
2023-08-08T02:52:41.974Z,12.95
2023-08-08T02:55:09.456Z,12.98
2023-08-08T02:57:37.905Z,13.00
2023-08-08T03:00:05.769Z,13.00
2023-08-08T03:02:37.455Z,12.97
2023-08-08T03:05:05.401Z,12.92
2023-08-08T03:07:32.014Z,12.86
2023-08-08T03:09:58.527Z,12.87
2023-08-08T03:12:25.326Z,12.87
2023-08-08T03:14:53.479Z,12.87
2023-08-08T03:17:20.133Z,12.84
2023-08-08T03:19:46.767Z,12.79
2023-08-08T03:22:14.829Z,12.73
2023-08-08T03:24:42.020Z,12.74
2023-08-08T03:27:08.566Z,12.75
2023-08-08T03:29:35.527Z,12.72
2023-08-08T03:32:02.161Z,12.68
2023-08-08T03:34:31.363Z,12.69
2023-08-08T03:36:58.050Z,12.66
2023-08-08T03:39:25.166Z,12.69
2023-08-08T03:41:51.780Z,12.67
2023-08-08T03:44:18.860Z,12.68
2023-08-08T03:46:45.519Z,12.70
2023-08-08T03:49:13.875Z,12.68
2023-08-08T03:51:40.527Z,12.66
2023-08-08T03:54:07.168Z,12.67
2023-08-08T03:56:33.868Z,12.71
2023-08-08T03:59:00.558Z,12.74
2023-08-08T04:01:27.109Z,12.72
2023-08-08T04:03:53.890Z,12.65
2023-08-08T04:06:23.337Z,12.58
2023-08-08T04:08:49.920Z,12.55
2023-08-08T04:11:16.600Z,12.54
2023-08-08T04:13:43.173Z,12.55
2023-08-08T04:16:09.788Z,12.52
2023-08-08T04:18:37.090Z,12.50
2023-08-08T04:21:03.606Z,12.46
2023-08-08T04:23:30.140Z,12.45
2023-08-08T04:25:56.729Z,12.44
2023-08-08T04:28:23.479Z,12.44
2023-08-08T04:30:50.087Z,12.42
2023-08-08T04:33:16.630Z,12.38
2023-08-08T04:35:43.210Z,12.35
2023-08-08T04:38:09.829Z,12.36
2023-08-08T04:40:36.823Z,12.34
2023-08-08T04:43:04.702Z,12.35
2023-08-08T04:45:31.214Z,12.32
2023-08-08T04:47:58.466Z,12.29
2023-08-08T04:50:25.010Z,12.28
2023-08-08T04:52:51.578Z,12.30
2023-08-08T04:55:18.068Z,12.31
2023-08-08T04:57:45.352Z,12.33
2023-08-08T05:00:13.042Z,12.33
2023-08-08T05:02:40.528Z,12.46
2023-08-08T05:05:07.806Z,12.59
2023-08-08T05:07:37.402Z,12.66
2023-08-08T05:10:04.515Z,12.68
2023-08-08T05:12:31.046Z,12.69
2023-08-08T05:14:57.812Z,12.75
2023-08-08T05:17:24.399Z,12.87
2023-08-08T05:19:50.910Z,12.98
2023-08-08T05:22:17.436Z,13.05
2023-08-08T05:24:43.938Z,13.10
2023-08-08T05:27:10.663Z,13.15
2023-08-08T05:29:39.186Z,13.18
2023-08-08T05:32:07.696Z,13.19
2023-08-08T05:34:35.133Z,13.17
2023-08-08T05:37:10.718Z,13.21
2023-08-08T05:39:41.505Z,13.27
2023-08-08T05:42:08.005Z,13.32
2023-08-08T05:44:34.667Z,13.37
2023-08-08T05:47:01.163Z,13.40
2023-08-08T05:49:27.726Z,13.46
2023-08-08T05:51:54.389Z,13.49
2023-08-08T05:54:20.926Z,13.52
2023-08-08T05:56:47.584Z,13.54
2023-08-08T05:59:14.100Z,13.57
2023-08-08T06:01:40.666Z,13.59
2023-08-08T06:04:07.482Z,13.60
2023-08-08T06:06:34.065Z,13.62
2023-08-08T06:09:00.538Z,13.63
2023-08-08T06:11:27.040Z,13.66
2023-08-08T06:13:53.664Z,13.70
2023-08-08T06:16:21.237Z,13.74
2023-08-08T06:18:47.850Z,13.78
2023-08-08T06:21:14.363Z,13.83
2023-08-08T06:23:40.894Z,13.85
2023-08-08T06:26:07.470Z,13.89
2023-08-08T06:28:34.366Z,13.93
2023-08-08T06:31:01.977Z,13.94
2023-08-08T06:33:29.265Z,13.97
2023-08-08T06:35:56.701Z,13.96
2023-08-08T06:38:23.757Z,13.98
2023-08-08T06:40:50.693Z,13.96
2023-08-08T06:43:17.254Z,13.97
2023-08-08T06:45:44.781Z,14.02
2023-08-08T06:48:11.511Z,14.06
2023-08-08T06:50:38.030Z,14.06
2023-08-08T06:53:04.806Z,14.12
2023-08-08T06:55:31.344Z,14.18
2023-08-08T06:57:57.814Z,14.25
2023-08-08T07:00:24.391Z,14.29
2023-08-08T07:02:50.993Z,14.33
2023-08-08T07:05:17.974Z,14.37
2023-08-08T07:07:45.951Z,14.42
2023-08-08T07:10:13.654Z,14.48
2023-08-08T07:12:40.272Z,14.55
2023-08-08T07:15:08.493Z,14.56
2023-08-08T07:17:35.235Z,14.61
2023-08-08T07:20:01.915Z,14.66
2023-08-08T07:22:29.522Z,14.70
2023-08-08T07:24:56.109Z,14.76
2023-08-08T07:27:23.065Z,14.79
2023-08-08T07:29:49.713Z,14.82
2023-08-08T07:32:16.247Z,14.89
2023-08-08T07:34:42.811Z,14.99
2023-08-08T07:37:09.965Z,15.04
2023-08-08T07:39:36.444Z,15.13
2023-08-08T07:42:04.450Z,15.21
2023-08-08T07:44:32.828Z,15.32
2023-08-08T07:46:59.546Z,15.39
2023-08-08T07:49:26.062Z,15.47
2023-08-08T07:51:52.718Z,15.57
2023-08-08T07:54:19.225Z,15.70
2023-08-08T07:56:45.771Z,15.83
2023-08-08T07:59:12.276Z,15.96
2023-08-08T08:01:38.825Z,16.04
2023-08-08T08:04:05.333Z,16.17
2023-08-08T08:06:32.878Z,16.24
2023-08-08T08:08:59.495Z,16.30
2023-08-08T08:11:25.969Z,16.38
2023-08-08T08:13:52.541Z,16.48
2023-08-08T08:16:19.511Z,16.63
2023-08-08T08:18:46.119Z,16.81
2023-08-08T08:21:14.269Z,16.98
2023-08-08T08:23:41.077Z,17.11
2023-08-08T08:26:08.193Z,17.18
2023-08-08T08:28:34.830Z,17.25
2023-08-08T08:31:06.174Z,17.28
2023-08-08T08:33:32.870Z,17.33
2023-08-08T08:35:59.503Z,17.37
2023-08-08T08:38:25.973Z,17.40
2023-08-08T08:40:55.220Z,17.39
2023-08-08T08:43:21.645Z,17.48
2023-08-08T08:45:52.111Z,17.56
2023-08-08T08:48:20.338Z,17.65
2023-08-08T08:50:48.435Z,17.68
2023-08-08T08:53:16.038Z,17.74
2023-08-08T08:55:42.807Z,17.82
2023-08-08T08:58:10.871Z,17.89
2023-08-08T09:00:37.618Z,17.91
2023-08-08T09:03:05.192Z,17.93
2023-08-08T09:05:32.314Z,17.90
2023-08-08T09:07:59.074Z,17.94
2023-08-08T09:10:27.491Z,17.97
2023-08-08T09:12:54.446Z,18.00
2023-08-08T09:15:20.923Z,18.09
2023-08-08T09:17:49.152Z,18.13
2023-08-08T09:20:16.457Z,18.14
2023-08-08T09:22:43.060Z,18.13
2023-08-08T09:25:09.564Z,18.18
2023-08-08T09:27:37.022Z,18.20
2023-08-08T09:30:04.368Z,18.22
2023-08-08T09:32:33.971Z,18.23
2023-08-08T09:35:00.824Z,18.24
2023-08-08T09:37:29.552Z,18.24
2023-08-08T09:40:00.569Z,18.32
2023-08-08T09:42:27.757Z,18.39
2023-08-08T09:44:54.568Z,18.42
2023-08-08T09:47:23.197Z,18.51
2023-08-08T09:49:50.274Z,18.58
2023-08-08T09:52:17.517Z,18.66
2023-08-08T09:54:44.116Z,18.73
2023-08-08T09:57:11.055Z,18.75
2023-08-08T09:59:38.555Z,18.73
2023-08-08T10:02:06.231Z,18.76
2023-08-08T10:04:33.227Z,18.80
2023-08-08T10:06:59.689Z,18.84
2023-08-08T10:09:26.137Z,18.82
2023-08-08T10:11:52.937Z,18.86
2023-08-08T10:14:19.488Z,18.93
2023-08-08T10:16:46.989Z,19.02
2023-08-08T10:19:13.947Z,19.14
2023-08-08T10:21:44.642Z,19.28
2023-08-08T10:24:11.814Z,19.38
2023-08-08T10:26:58.575Z,19.44
2023-08-08T10:29:26.753Z,19.52
2023-08-08T10:32:13.432Z,19.58
2023-08-08T10:34:44.870Z,19.66
2023-08-08T10:37:16.531Z,19.72
2023-08-08T10:39:55.008Z,19.72
2023-08-08T10:42:23.562Z,19.76
2023-08-08T10:45:00.783Z,19.85
2023-08-08T10:47:32.228Z,19.89
2023-08-08T10:50:10.275Z,19.85
2023-08-08T10:52:54.406Z,19.79
2023-08-08T10:55:35.170Z,19.83
2023-08-08T10:58:07.342Z,19.83
2023-08-08T11:00:37.265Z,19.88
2023-08-08T11:03:07.386Z,20.05
2023-08-08T11:05:35.353Z,20.17
2023-08-08T11:08:02.681Z,20.36
2023-08-08T11:10:32.438Z,20.47
2023-08-08T11:13:00.766Z,20.48
2023-08-08T11:15:28.357Z,20.47
2023-08-08T11:17:56.707Z,20.52
2023-08-08T11:20:24.536Z,20.63
2023-08-08T11:22:55.289Z,20.74
2023-08-08T11:25:22.930Z,20.80
2023-08-08T11:27:53.372Z,20.83
2023-08-08T11:30:20.641Z,20.84
2023-08-08T11:33:15.426Z,20.91
2023-08-08T11:35:35.414Z,20.97
2023-08-08T11:38:03.473Z,20.99
2023-08-08T11:40:30.696Z,21.05
2023-08-08T11:42:57.974Z,21.06
2023-08-08T11:45:25.613Z,20.98
2023-08-08T11:47:53.954Z,21.00
2023-08-08T11:50:23.963Z,20.95
2023-08-08T11:52:53.569Z,20.92
2023-08-08T11:55:23.334Z,20.85
2023-08-08T11:57:50.589Z,20.84
2023-08-08T12:00:18.857Z,20.82
2023-08-08T12:02:45.847Z,20.87
2023-08-08T12:05:22.649Z,20.85
2023-08-08T12:07:49.454Z,20.83
2023-08-08T12:10:17.904Z,20.86
2023-08-08T12:12:45.769Z,20.84
2023-08-08T12:15:16.437Z,20.86
2023-08-08T12:17:44.445Z,20.91
2023-08-08T12:20:11.322Z,20.93
2023-08-08T12:22:38.016Z,20.92
2023-08-08T12:25:05.187Z,20.88
2023-08-08T12:27:31.743Z,20.82
2023-08-08T12:29:58.907Z,20.85
2023-08-08T12:32:29.277Z,20.84
2023-08-08T12:34:57.141Z,20.80
2023-08-08T12:37:24.737Z,20.90
2023-08-08T12:39:51.610Z,21.12
2023-08-08T12:42:18.745Z,21.16
2023-08-08T12:44:45.881Z,21.17
2023-08-08T12:47:13.290Z,21.15
2023-08-08T12:49:41.763Z,21.14
2023-08-08T12:52:08.650Z,21.18
2023-08-08T12:54:37.046Z,21.29
2023-08-08T12:57:03.886Z,21.35
2023-08-08T12:59:30.660Z,21.41
2023-08-08T13:01:57.692Z,21.47
2023-08-08T13:04:24.299Z,21.61
2023-08-08T13:06:50.859Z,21.73
2023-08-08T13:09:17.377Z,21.82
2023-08-08T13:11:44.228Z,21.86
2023-08-08T13:14:10.719Z,21.82
2023-08-08T13:16:37.425Z,21.81
2023-08-08T13:19:05.003Z,21.77
2023-08-08T13:21:31.476Z,21.78
2023-08-08T13:23:58.667Z,21.75
2023-08-08T13:26:25.196Z,21.74
2023-08-08T13:28:51.728Z,21.60
2023-08-08T13:31:18.314Z,21.42
2023-08-08T13:33:44.855Z,21.22
2023-08-08T13:36:11.400Z,21.09
2023-08-08T13:38:38.013Z,20.98
2023-08-08T13:41:04.536Z,20.93
2023-08-08T13:43:31.574Z,20.92
2023-08-08T13:45:58.259Z,20.95
2023-08-08T13:48:24.807Z,20.94
2023-08-08T13:50:52.090Z,20.93
2023-08-08T13:53:18.613Z,20.97
2023-08-08T13:55:45.756Z,20.92
2023-08-08T13:58:12.499Z,20.88
2023-08-08T14:00:39.020Z,20.80
2023-08-08T14:03:06.196Z,20.76
2023-08-08T14:05:33.098Z,20.71
2023-08-08T14:07:59.633Z,20.66
2023-08-08T14:10:26.213Z,20.65
2023-08-08T14:12:52.757Z,20.63
2023-08-08T14:15:19.195Z,20.59
2023-08-08T14:17:46.736Z,20.54
2023-08-08T14:20:13.437Z,20.56
2023-08-08T14:22:39.966Z,20.58
2023-08-08T14:25:09.883Z,20.65
2023-08-08T14:27:36.607Z,20.77
2023-08-08T14:30:04.952Z,20.91
2023-08-08T14:32:31.902Z,21.07
2023-08-08T14:34:59.841Z,21.19
2023-08-08T14:37:26.690Z,21.31
2023-08-08T14:39:54.031Z,21.34
2023-08-08T14:42:21.139Z,21.33
2023-08-08T14:44:47.705Z,21.23
2023-08-08T14:47:14.256Z,21.02
2023-08-08T14:49:40.704Z,20.83
2023-08-08T14:52:09.794Z,20.65
2023-08-08T14:54:36.287Z,20.52
2023-08-08T14:57:02.965Z,20.36
2023-08-08T14:59:29.872Z,20.29
2023-08-08T15:01:56.577Z,20.19
2023-08-08T15:04:23.333Z,20.11
2023-08-08T15:06:49.898Z,20.01
2023-08-08T15:09:16.479Z,19.95
2023-08-08T15:11:42.964Z,19.86
2023-08-08T15:14:09.603Z,19.84
2023-08-08T15:16:36.235Z,19.81
2023-08-08T15:19:03.169Z,19.77
2023-08-08T15:21:29.655Z,19.70
2023-08-08T15:23:56.103Z,19.68
2023-08-08T15:26:23.805Z,19.62
2023-08-08T15:28:50.531Z,19.61
2023-08-08T15:31:17.660Z,19.60
2023-08-08T15:33:44.472Z,19.58
2023-08-08T15:36:11.157Z,19.57
2023-08-08T15:38:37.668Z,19.56
2023-08-08T15:41:04.245Z,19.52
2023-08-08T15:43:31.403Z,19.47
2023-08-08T15:45:59.643Z,19.49
2023-08-08T15:48:26.991Z,19.55
2023-08-08T15:50:53.508Z,19.59
2023-08-08T15:53:20.832Z,19.59
2023-08-08T15:55:47.543Z,19.61
2023-08-08T15:58:14.204Z,19.61
2023-08-08T16:00:40.789Z,19.63
2023-08-08T16:03:07.519Z,19.68
2023-08-08T16:05:34.284Z,19.69
2023-08-08T16:08:02.269Z,19.68
2023-08-08T16:10:28.867Z,19.72
2023-08-08T16:12:55.489Z,19.76
2023-08-08T16:15:22.637Z,19.77
2023-08-08T16:17:49.288Z,19.75
2023-08-08T16:20:17.654Z,19.76
2023-08-08T16:22:46.004Z,19.80
2023-08-08T16:25:12.587Z,19.75
2023-08-08T16:27:39.207Z,19.74
2023-08-08T16:30:06.274Z,19.72
2023-08-08T16:32:33.020Z,19.69
2023-08-08T16:34:59.649Z,19.64
2023-08-08T16:37:26.453Z,19.60
2023-08-08T16:39:53.014Z,19.59
2023-08-08T16:42:20.969Z,19.55
2023-08-08T16:44:47.398Z,19.57
2023-08-08T16:47:13.889Z,19.53
2023-08-08T16:49:40.725Z,19.52
2023-08-08T16:52:07.228Z,19.49
2023-08-08T16:54:34.737Z,19.49
2023-08-08T16:57:01.317Z,19.49
2023-08-08T16:59:27.805Z,19.51
2023-08-08T17:01:54.255Z,19.47
2023-08-08T17:04:20.898Z,19.48
2023-08-08T17:06:47.426Z,19.44
2023-08-08T17:09:14.787Z,19.42
2023-08-08T17:11:41.423Z,19.43
2023-08-08T17:14:07.959Z,19.41
2023-08-08T17:16:34.547Z,19.36
2023-08-08T17:19:01.143Z,19.35
2023-08-08T17:21:27.679Z,19.32
2023-08-08T17:23:54.244Z,19.30
2023-08-08T17:26:20.798Z,19.26
2023-08-08T17:28:48.396Z,19.19
2023-08-08T17:31:14.933Z,19.16
2023-08-08T17:33:41.609Z,19.19
2023-08-08T17:36:08.110Z,19.20
2023-08-08T17:38:34.711Z,19.21
2023-08-08T17:41:01.188Z,19.18
2023-08-08T17:43:28.031Z,19.15
2023-08-08T17:45:57.097Z,19.16
2023-08-08T17:48:23.663Z,19.14
2023-08-08T17:50:50.233Z,19.11
2023-08-08T17:53:16.848Z,19.04
2023-08-08T17:55:43.640Z,18.99
2023-08-08T17:58:10.195Z,18.96
2023-08-08T18:00:37.364Z,18.93
2023-08-08T18:03:04.344Z,18.90
2023-08-08T18:05:31.313Z,18.89
2023-08-08T18:07:57.913Z,18.86
2023-08-08T18:10:24.637Z,18.83
2023-08-08T18:12:51.199Z,18.81
2023-08-08T18:15:17.723Z,18.78
2023-08-08T18:17:44.304Z,18.76
2023-08-08T18:20:12.678Z,18.75
2023-08-08T18:22:39.126Z,18.74
2023-08-08T18:25:06.039Z,18.73
2023-08-08T18:27:32.549Z,18.69
2023-08-08T18:29:59.130Z,18.67
2023-08-08T18:32:26.221Z,18.65
2023-08-08T18:34:52.821Z,18.63
2023-08-08T18:37:20.071Z,18.59
2023-08-08T18:39:46.742Z,18.58
2023-08-08T18:42:13.383Z,18.55
2023-08-08T18:44:39.863Z,18.56
2023-08-08T18:47:06.600Z,18.50
2023-08-08T18:49:33.120Z,18.50
2023-08-08T18:51:59.994Z,18.49
2023-08-08T18:54:26.735Z,18.48
2023-08-08T18:56:53.224Z,18.44
2023-08-08T18:59:21.643Z,18.46
2023-08-08T19:01:48.225Z,18.45
2023-08-08T19:04:14.854Z,18.44
2023-08-08T19:06:41.414Z,18.42
2023-08-08T19:09:11.175Z,18.42
2023-08-08T19:11:37.843Z,18.39
2023-08-08T19:14:04.885Z,18.37
2023-08-08T19:16:31.924Z,18.36
2023-08-08T19:18:58.521Z,18.34
2023-08-08T19:21:25.176Z,18.34
2023-08-08T19:23:52.895Z,18.33
2023-08-08T19:26:19.418Z,18.30
2023-08-08T19:28:46.771Z,18.30
2023-08-08T19:31:15.380Z,18.28
2023-08-08T19:33:51.858Z,18.25
2023-08-08T19:36:27.207Z,18.23
2023-08-08T19:38:53.787Z,18.22
2023-08-08T19:41:20.279Z,18.19
2023-08-08T19:43:46.885Z,18.17
2023-08-08T19:46:15.367Z,18.17
2023-08-08T19:48:42.565Z,18.12
2023-08-08T19:51:09.136Z,18.09
2023-08-08T19:53:37.060Z,18.05
2023-08-08T19:56:03.553Z,18.04
2023-08-08T19:58:30.315Z,18.03
2023-08-08T20:00:57.819Z,18.00
2023-08-08T20:03:24.428Z,17.98
2023-08-08T20:05:51.011Z,17.98
2023-08-08T20:08:19.536Z,17.96
2023-08-08T20:10:46.069Z,17.93
2023-08-08T20:13:13.609Z,17.92
2023-08-08T20:15:40.197Z,17.89
2023-08-08T20:18:07.184Z,17.89
2023-08-08T20:20:33.811Z,17.88
2023-08-08T20:23:00.385Z,17.89
2023-08-08T20:25:27.086Z,17.87
2023-08-08T20:27:53.565Z,17.87
2023-08-08T20:30:20.062Z,17.80
2023-08-08T20:32:46.610Z,17.81
2023-08-08T20:35:14.427Z,17.81
2023-08-08T20:37:41.209Z,17.80
2023-08-08T20:40:08.214Z,17.76
2023-08-08T20:42:34.778Z,17.74
2023-08-08T20:45:01.306Z,17.69
2023-08-08T20:47:28.016Z,17.67
2023-08-08T20:49:54.504Z,17.62
2023-08-08T20:52:21.041Z,17.61
2023-08-08T20:54:47.570Z,17.58
2023-08-08T20:57:14.107Z,17.55
2023-08-08T20:59:42.529Z,17.52
2023-08-08T21:02:09.237Z,17.48
2023-08-08T21:04:35.773Z,17.46
2023-08-08T21:07:02.871Z,17.38
2023-08-08T21:09:29.599Z,17.35
2023-08-08T21:11:56.896Z,17.31
2023-08-08T21:14:23.366Z,17.19
2023-08-08T21:16:49.996Z,17.06
2023-08-08T21:19:16.584Z,16.96
2023-08-08T21:21:43.270Z,16.93
2023-08-08T21:24:09.862Z,16.86
2023-08-08T21:26:39.740Z,16.83
2023-08-08T21:29:06.984Z,16.78
2023-08-08T21:31:33.482Z,16.76
2023-08-08T21:34:00.034Z,16.72
2023-08-08T21:36:26.527Z,16.67
2023-08-08T21:38:53.062Z,16.64
2023-08-08T21:41:19.602Z,16.59
2023-08-08T21:43:46.176Z,16.54
2023-08-08T21:46:12.995Z,16.48
2023-08-08T21:48:39.436Z,16.42
2023-08-08T21:51:06.206Z,16.38
2023-08-08T21:53:34.252Z,16.32
2023-08-08T21:56:02.281Z,16.29
2023-08-08T21:58:29.214Z,16.20
2023-08-08T22:00:55.721Z,16.23
2023-08-08T22:03:22.409Z,16.21
2023-08-08T22:05:49.144Z,16.19
2023-08-08T22:08:15.738Z,16.14
2023-08-08T22:10:42.428Z,16.07
2023-08-08T22:13:10.679Z,16.05
2023-08-08T22:15:38.150Z,16.05
2023-08-08T22:18:16.485Z,16.02
2023-08-08T22:20:44.471Z,15.97
2023-08-08T22:23:19.600Z,15.96
2023-08-08T22:25:47.379Z,15.96
2023-08-08T22:28:13.850Z,15.96
2023-08-08T22:30:40.514Z,15.94
2023-08-08T22:33:07.251Z,15.94
2023-08-08T22:35:33.756Z,15.91
2023-08-08T22:38:00.347Z,15.86
2023-08-08T22:40:26.894Z,15.80
2023-08-08T22:42:53.393Z,15.82
2023-08-08T22:45:19.973Z,15.80
2023-08-08T22:47:46.605Z,15.79
2023-08-08T22:50:13.523Z,15.81
2023-08-08T22:52:40.029Z,15.80
2023-08-08T22:55:07.053Z,15.74
2023-08-08T22:57:33.736Z,15.73
2023-08-08T23:00:00.780Z,15.72
2023-08-08T23:02:27.315Z,15.76
2023-08-08T23:04:53.800Z,15.77
2023-08-08T23:07:20.417Z,15.76
2023-08-08T23:09:49.101Z,15.75
2023-08-08T23:12:15.936Z,15.73
2023-08-08T23:14:42.786Z,15.70
2023-08-08T23:17:09.852Z,15.67
2023-08-08T23:19:36.675Z,15.68
2023-08-08T23:22:03.234Z,15.67
2023-08-08T23:24:30.063Z,15.66
2023-08-08T23:26:56.704Z,15.67
2023-08-08T23:29:23.870Z,15.65
2023-08-08T23:31:50.463Z,15.62
2023-08-08T23:34:17.147Z,15.63
2023-08-08T23:36:43.617Z,15.62
2023-08-08T23:39:11.029Z,15.57
2023-08-08T23:41:37.581Z,15.52
2023-08-08T23:44:04.498Z,15.52
2023-08-08T23:46:31.480Z,15.52
2023-08-08T23:48:58.006Z,15.53
2023-08-08T23:51:24.567Z,15.52
2023-08-08T23:53:51.149Z,15.52
2023-08-08T23:56:17.761Z,15.48
2023-08-08T23:58:44.313Z,15.45
